sensor_id;sensor_type;location;lat;lon;timestamp;P1;durP1;ratioP1;P2;durP2;ratioP2
71671;SDS011;67659;45.554;11.812;2023-07-08T00:00:18;11.45;;;6.45;;
71671;SDS011;67659;45.554;11.812;2023-07-08T00:02:45;12.93;;;6.63;;
71671;SDS011;67659;45.554;11.812;2023-07-08T00:05:11;11.20;;;6.17;;
71671;SDS011;67659;45.554;11.812;2023-07-08T00:07:38;10.10;;;5.75;;
71671;SDS011;67659;45.554;11.812;2023-07-08T00:10:10;10.73;;;6.28;;
71671;SDS011;67659;45.554;11.812;2023-07-08T00:12:39;11.50;;;6.53;;
71671;SDS011;67659;45.554;11.812;2023-07-08T00:15:05;11.45;;;6.85;;
71671;SDS011;67659;45.554;11.812;2023-07-08T00:17:31;12.43;;;6.93;;
71671;SDS011;67659;45.554;11.812;2023-07-08T00:19:57;11.48;;;6.22;;
71671;SDS011;67659;45.554;11.812;2023-07-08T00:22:23;11.75;;;5.82;;
71671;SDS011;67659;45.554;11.812;2023-07-08T00:24:50;11.10;;;5.93;;
71671;SDS011;67659;45.554;11.812;2023-07-08T00:27:16;13.88;;;6.60;;
71671;SDS011;67659;45.554;11.812;2023-07-08T00:29:42;11.32;;;6.57;;
71671;SDS011;67659;45.554;11.812;2023-07-08T00:32:12;13.75;;;7.20;;
71671;SDS011;67659;45.554;11.812;2023-07-08T00:34:40;11.93;;;6.50;;
71671;SDS011;67659;45.554;11.812;2023-07-08T00:37:09;11.80;;;6.30;;
71671;SDS011;67659;45.554;11.812;2023-07-08T00:39:36;11.13;;;6.57;;
71671;SDS011;67659;45.554;11.812;2023-07-08T00:42:06;12.15;;;6.78;;
71671;SDS011;67659;45.554;11.812;2023-07-08T00:44:40;11.52;;;7.30;;
71671;SDS011;67659;45.554;11.812;2023-07-08T00:47:08;18.20;;;7.78;;
71671;SDS011;67659;45.554;11.812;2023-07-08T00:49:43;13.83;;;6.50;;
71671;SDS011;67659;45.554;11.812;2023-07-08T00:52:19;12.18;;;6.43;;
71671;SDS011;67659;45.554;11.812;2023-07-08T00:54:51;12.13;;;6.55;;
71671;SDS011;67659;45.554;11.812;2023-07-08T00:57:18;11.25;;;6.80;;
71671;SDS011;67659;45.554;11.812;2023-07-08T00:59:49;11.65;;;7.05;;
71671;SDS011;67659;45.554;11.812;2023-07-08T01:02:22;11.27;;;6.30;;
71671;SDS011;67659;45.554;11.812;2023-07-08T01:05:01;11.35;;;6.95;;
71671;SDS011;67659;45.554;11.812;2023-07-08T01:07:31;12.10;;;6.75;;
71671;SDS011;67659;45.554;11.812;2023-07-08T01:10:02;12.90;;;7.82;;
71671;SDS011;67659;45.554;11.812;2023-07-08T01:12:34;12.18;;;7.50;;
71671;SDS011;67659;45.554;11.812;2023-07-08T01:15:06;13.33;;;7.37;;
71671;SDS011;67659;45.554;11.812;2023-07-08T01:17:33;10.32;;;6.47;;
71671;SDS011;67659;45.554;11.812;2023-07-08T01:19:59;11.55;;;6.70;;
71671;SDS011;67659;45.554;11.812;2023-07-08T01:22:31;11.73;;;6.70;;
71671;SDS011;67659;45.554;11.812;2023-07-08T01:25:00;13.82;;;6.97;;
71671;SDS011;67659;45.554;11.812;2023-07-08T01:27:28;12.07;;;6.67;;
71671;SDS011;67659;45.554;11.812;2023-07-08T01:29:57;10.85;;;6.10;;
71671;SDS011;67659;45.554;11.812;2023-07-08T01:32:24;13.20;;;6.53;;
71671;SDS011;67659;45.554;11.812;2023-07-08T01:34:50;15.30;;;7.35;;
71671;SDS011;67659;45.554;11.812;2023-07-08T01:37:30;12.85;;;7.50;;
71671;SDS011;67659;45.554;11.812;2023-07-08T01:40:13;12.97;;;6.60;;
71671;SDS011;67659;45.554;11.812;2023-07-08T01:42:44;11.98;;;6.63;;
71671;SDS011;67659;45.554;11.812;2023-07-08T01:45:13;13.77;;;7.30;;
71671;SDS011;67659;45.554;11.812;2023-07-08T01:47:41;11.85;;;6.82;;
71671;SDS011;67659;45.554;11.812;2023-07-08T01:50:09;15.13;;;7.47;;
71671;SDS011;67659;45.554;11.812;2023-07-08T01:52:36;13.10;;;7.00;;
71671;SDS011;67659;45.554;11.812;2023-07-08T01:55:02;12.07;;;7.82;;
71671;SDS011;67659;45.554;11.812;2023-07-08T01:57:29;12.55;;;7.40;;
71671;SDS011;67659;45.554;11.812;2023-07-08T01:59:55;12.73;;;7.17;;
71671;SDS011;67659;45.554;11.812;2023-07-08T02:02:21;12.73;;;7.60;;
71671;SDS011;67659;45.554;11.812;2023-07-08T02:04:49;13.05;;;7.65;;
71671;SDS011;67659;45.554;11.812;2023-07-08T02:07:15;17.00;;;8.43;;
71671;SDS011;67659;45.554;11.812;2023-07-08T02:09:41;16.07;;;9.40;;
71671;SDS011;67659;45.554;11.812;2023-07-08T02:12:07;17.10;;;10.02;;
71671;SDS011;67659;45.554;11.812;2023-07-08T02:14:33;17.73;;;9.35;;
71671;SDS011;67659;45.554;11.812;2023-07-08T02:16:59;18.47;;;9.43;;
71671;SDS011;67659;45.554;11.812;2023-07-08T02:19:25;15.40;;;9.30;;
71671;SDS011;67659;45.554;11.812;2023-07-08T02:21:52;15.45;;;9.55;;
71671;SDS011;67659;45.554;11.812;2023-07-08T02:24:18;14.20;;;8.85;;
71671;SDS011;67659;45.554;11.812;2023-07-08T02:26:44;16.20;;;9.40;;
71671;SDS011;67659;45.554;11.812;2023-07-08T02:29:12;15.88;;;9.60;;
71671;SDS011;67659;45.554;11.812;2023-07-08T02:31:38;17.02;;;9.70;;
71671;SDS011;67659;45.554;11.812;2023-07-08T02:34:03;13.47;;;8.73;;
71671;SDS011;67659;45.554;11.812;2023-07-08T02:36:29;13.82;;;8.57;;
71671;SDS011;67659;45.554;11.812;2023-07-08T02:38:55;15.13;;;9.33;;
71671;SDS011;67659;45.554;11.812;2023-07-08T02:41:21;14.63;;;9.30;;
71671;SDS011;67659;45.554;11.812;2023-07-08T02:43:47;14.05;;;9.15;;
71671;SDS011;67659;45.554;11.812;2023-07-08T02:46:12;18.10;;;10.53;;
71671;SDS011;67659;45.554;11.812;2023-07-08T02:48:38;18.15;;;10.25;;
71671;SDS011;67659;45.554;11.812;2023-07-08T02:51:04;18.13;;;11.23;;
71671;SDS011;67659;45.554;11.812;2023-07-08T02:53:31;15.00;;;9.32;;
71671;SDS011;67659;45.554;11.812;2023-07-08T02:55:57;14.35;;;8.10;;
71671;SDS011;67659;45.554;11.812;2023-07-08T02:58:23;13.40;;;7.88;;
71671;SDS011;67659;45.554;11.812;2023-07-08T03:00:53;13.23;;;8.67;;
71671;SDS011;67659;45.554;11.812;2023-07-08T03:03:20;14.25;;;8.20;;
71671;SDS011;67659;45.554;11.812;2023-07-08T03:05:55;13.25;;;7.70;;
71671;SDS011;67659;45.554;11.812;2023-07-08T03:08:23;13.00;;;8.57;;
71671;SDS011;67659;45.554;11.812;2023-07-08T03:10:54;13.40;;;8.80;;
71671;SDS011;67659;45.554;11.812;2023-07-08T03:13:21;14.23;;;9.03;;
71671;SDS011;67659;45.554;11.812;2023-07-08T03:15:47;15.45;;;9.00;;
71671;SDS011;67659;45.554;11.812;2023-07-08T03:18:13;15.02;;;9.20;;
71671;SDS011;67659;45.554;11.812;2023-07-08T03:20:41;16.98;;;9.48;;
71671;SDS011;67659;45.554;11.812;2023-07-08T03:23:09;13.20;;;8.67;;
71671;SDS011;67659;45.554;11.812;2023-07-08T03:25:36;15.13;;;10.07;;
71671;SDS011;67659;45.554;11.812;2023-07-08T03:28:02;16.67;;;9.70;;
71671;SDS011;67659;45.554;11.812;2023-07-08T03:30:31;13.77;;;9.07;;
71671;SDS011;67659;45.554;11.812;2023-07-08T03:32:58;15.43;;;10.15;;
71671;SDS011;67659;45.554;11.812;2023-07-08T03:35:24;16.20;;;9.77;;
71671;SDS011;67659;45.554;11.812;2023-07-08T03:37:50;16.73;;;10.82;;
71671;SDS011;67659;45.554;11.812;2023-07-08T03:40:17;16.70;;;11.75;;
71671;SDS011;67659;45.554;11.812;2023-07-08T03:42:42;16.05;;;9.95;;
71671;SDS011;67659;45.554;11.812;2023-07-08T03:45:08;15.47;;;10.10;;
71671;SDS011;67659;45.554;11.812;2023-07-08T03:47:34;14.35;;;9.55;;
71671;SDS011;67659;45.554;11.812;2023-07-08T03:50:00;17.10;;;11.70;;
71671;SDS011;67659;45.554;11.812;2023-07-08T03:52:26;16.73;;;10.93;;
71671;SDS011;67659;45.554;11.812;2023-07-08T03:54:52;15.98;;;10.25;;
71671;SDS011;67659;45.554;11.812;2023-07-08T03:57:18;19.63;;;11.15;;
71671;SDS011;67659;45.554;11.812;2023-07-08T03:59:44;17.33;;;11.73;;
71671;SDS011;67659;45.554;11.812;2023-07-08T04:02:10;18.13;;;11.77;;
71671;SDS011;67659;45.554;11.812;2023-07-08T04:04:36;16.30;;;11.15;;
71671;SDS011;67659;45.554;11.812;2023-07-08T04:07:05;16.58;;;11.20;;
71671;SDS011;67659;45.554;11.812;2023-07-08T04:09:31;19.58;;;11.77;;
71671;SDS011;67659;45.554;11.812;2023-07-08T04:11:57;17.13;;;10.87;;
71671;SDS011;67659;45.554;11.812;2023-07-08T04:14:25;17.30;;;11.27;;
71671;SDS011;67659;45.554;11.812;2023-07-08T04:16:52;16.73;;;10.65;;
71671;SDS011;67659;45.554;11.812;2023-07-08T04:19:23;17.10;;;10.07;;
71671;SDS011;67659;45.554;11.812;2023-07-08T04:21:49;15.73;;;10.05;;
71671;SDS011;67659;45.554;11.812;2023-07-08T04:24:16;15.63;;;10.38;;
71671;SDS011;67659;45.554;11.812;2023-07-08T04:26:43;14.65;;;9.20;;
71671;SDS011;67659;45.554;11.812;2023-07-08T04:29:15;17.10;;;10.05;;
71671;SDS011;67659;45.554;11.812;2023-07-08T04:31:42;15.40;;;9.40;;
71671;SDS011;67659;45.554;11.812;2023-07-08T04:34:08;39.30;;;10.20;;
71671;SDS011;67659;45.554;11.812;2023-07-08T04:36:35;15.60;;;9.32;;
71671;SDS011;67659;45.554;11.812;2023-07-08T04:39:03;13.77;;;8.82;;
71671;SDS011;67659;45.554;11.812;2023-07-08T04:41:30;14.52;;;8.98;;
71671;SDS011;67659;45.554;11.812;2023-07-08T04:43:56;13.80;;;9.27;;
71671;SDS011;67659;45.554;11.812;2023-07-08T04:46:29;13.75;;;9.10;;
71671;SDS011;67659;45.554;11.812;2023-07-08T04:49:02;14.75;;;9.70;;
71671;SDS011;67659;45.554;11.812;2023-07-08T04:51:29;14.73;;;9.07;;
71671;SDS011;67659;45.554;11.812;2023-07-08T04:53:55;16.13;;;9.70;;
71671;SDS011;67659;45.554;11.812;2023-07-08T04:56:20;16.75;;;9.95;;
71671;SDS011;67659;45.554;11.812;2023-07-08T04:58:48;14.82;;;10.05;;
71671;SDS011;67659;45.554;11.812;2023-07-08T05:01:14;15.43;;;10.25;;
71671;SDS011;67659;45.554;11.812;2023-07-08T05:03:40;15.57;;;10.30;;
71671;SDS011;67659;45.554;11.812;2023-07-08T05:06:06;16.92;;;10.50;;
71671;SDS011;67659;45.554;11.812;2023-07-08T05:08:32;14.93;;;9.87;;
71671;SDS011;67659;45.554;11.812;2023-07-08T05:10:57;15.30;;;10.05;;
71671;SDS011;67659;45.554;11.812;2023-07-08T05:13:24;16.65;;;10.40;;
71671;SDS011;67659;45.554;11.812;2023-07-08T05:15:50;13.70;;;9.47;;
71671;SDS011;67659;45.554;11.812;2023-07-08T05:18:16;14.50;;;9.80;;
71671;SDS011;67659;45.554;11.812;2023-07-08T05:20:41;15.33;;;9.53;;
71671;SDS011;67659;45.554;11.812;2023-07-08T05:23:08;14.50;;;9.03;;
71671;SDS011;67659;45.554;11.812;2023-07-08T05:25:34;16.30;;;9.15;;
71671;SDS011;67659;45.554;11.812;2023-07-08T05:28:00;13.18;;;8.75;;
71671;SDS011;67659;45.554;11.812;2023-07-08T05:30:26;12.80;;;8.07;;
71671;SDS011;67659;45.554;11.812;2023-07-08T05:32:52;14.17;;;8.70;;
71671;SDS011;67659;45.554;11.812;2023-07-08T05:35:18;12.73;;;8.18;;
71671;SDS011;67659;45.554;11.812;2023-07-08T05:37:44;12.20;;;7.63;;
71671;SDS011;67659;45.554;11.812;2023-07-08T05:40:12;10.63;;;6.97;;
71671;SDS011;67659;45.554;11.812;2023-07-08T05:42:38;11.65;;;6.95;;
71671;SDS011;67659;45.554;11.812;2023-07-08T09:44:29;8.38;;;5.10;;
71671;SDS011;67659;45.554;11.812;2023-07-08T09:46:55;9.70;;;5.50;;
71671;SDS011;67659;45.554;11.812;2023-07-08T09:51:52;9.10;;;5.77;;
71671;SDS011;67659;45.554;11.812;2023-07-08T09:54:20;8.93;;;5.28;;
71671;SDS011;67659;45.554;11.812;2023-07-08T09:56:54;9.73;;;5.30;;
71671;SDS011;67659;45.554;11.812;2023-07-08T09:59:26;10.60;;;5.30;;
71671;SDS011;67659;45.554;11.812;2023-07-08T10:01:58;8.15;;;5.00;;
71671;SDS011;67659;45.554;11.812;2023-07-08T10:04:25;7.13;;;4.50;;
71671;SDS011;67659;45.554;11.812;2023-07-08T10:06:51;9.07;;;4.80;;
71671;SDS011;67659;45.554;11.812;2023-07-08T10:09:21;7.70;;;4.95;;
71671;SDS011;67659;45.554;11.812;2023-07-08T10:11:59;8.15;;;4.85;;
71671;SDS011;67659;45.554;11.812;2023-07-08T10:14:34;9.57;;;4.83;;
71671;SDS011;67659;45.554;11.812;2023-07-08T10:17:04;8.80;;;5.15;;
71671;SDS011;67659;45.554;11.812;2023-07-08T10:19:30;9.70;;;5.30;;
71671;SDS011;67659;45.554;11.812;2023-07-08T10:27:44;8.30;;;5.27;;
71671;SDS011;67659;45.554;11.812;2023-07-08T10:30:26;8.95;;;5.20;;
71671;SDS011;67659;45.554;11.812;2023-07-08T10:33:16;7.75;;;5.00;;
71671;SDS011;67659;45.554;11.812;2023-07-08T10:36:18;9.95;;;5.10;;
71671;SDS011;67659;45.554;11.812;2023-07-08T10:44:07;12.55;;;5.78;;
71671;SDS011;67659;45.554;11.812;2023-07-08T10:49:57;8.25;;;5.00;;
71671;SDS011;67659;45.554;11.812;2023-07-08T10:52:47;8.38;;;4.68;;
71671;SDS011;67659;45.554;11.812;2023-07-08T11:03:57;7.75;;;4.57;;
71671;SDS011;67659;45.554;11.812;2023-07-08T11:06:53;7.72;;;4.55;;
71671;SDS011;67659;45.554;11.812;2023-07-08T11:09:28;9.30;;;5.10;;
71671;SDS011;67659;45.554;11.812;2023-07-08T11:17:49;12.00;;;5.53;;
71671;SDS011;67659;45.554;11.812;2023-07-08T11:20:18;10.32;;;5.28;;
71671;SDS011;67659;45.554;11.812;2023-07-08T11:22:50;8.27;;;5.07;;
71671;SDS011;67659;45.554;11.812;2023-07-08T11:25:21;9.20;;;5.50;;
71671;SDS011;67659;45.554;11.812;2023-07-08T11:27:52;9.35;;;5.07;;
71671;SDS011;67659;45.554;11.812;2023-07-08T11:30:22;8.20;;;5.50;;
71671;SDS011;67659;45.554;11.812;2023-07-08T11:32:54;8.43;;;5.25;;
71671;SDS011;67659;45.554;11.812;2023-07-08T11:38:06;9.98;;;5.45;;
71671;SDS011;67659;45.554;11.812;2023-07-08T11:40:49;7.65;;;4.93;;
71671;SDS011;67659;45.554;11.812;2023-07-08T11:43:20;8.13;;;4.82;;
71671;SDS011;67659;45.554;11.812;2023-07-08T11:45:49;10.88;;;5.32;;
71671;SDS011;67659;45.554;11.812;2023-07-08T11:48:22;9.60;;;5.47;;
71671;SDS011;67659;45.554;11.812;2023-07-08T11:50:51;8.60;;;4.63;;
71671;SDS011;67659;45.554;11.812;2023-07-08T11:56:00;8.48;;;4.68;;
71671;SDS011;67659;45.554;11.812;2023-07-08T11:58:31;7.75;;;4.80;;
71671;SDS011;67659;45.554;11.812;2023-07-08T12:01:28;8.13;;;4.80;;
71671;SDS011;67659;45.554;11.812;2023-07-08T12:04:01;8.50;;;4.88;;
71671;SDS011;67659;45.554;11.812;2023-07-08T12:09:37;8.18;;;4.97;;
71671;SDS011;67659;45.554;11.812;2023-07-08T12:12:23;9.15;;;4.80;;
71671;SDS011;67659;45.554;11.812;2023-07-08T12:14:54;9.60;;;5.03;;
71671;SDS011;67659;45.554;11.812;2023-07-08T12:17:26;8.38;;;4.65;;
71671;SDS011;67659;45.554;11.812;2023-07-08T12:19:52;8.10;;;4.68;;
71671;SDS011;67659;45.554;11.812;2023-07-08T12:22:33;7.30;;;4.45;;
71671;SDS011;67659;45.554;11.812;2023-07-08T12:24:59;8.38;;;4.57;;
71671;SDS011;67659;45.554;11.812;2023-07-08T12:27:30;10.50;;;5.03;;
71671;SDS011;67659;45.554;11.812;2023-07-08T12:29:56;7.50;;;4.40;;
71671;SDS011;67659;45.554;11.812;2023-07-08T12:32:22;7.90;;;4.80;;
71671;SDS011;67659;45.554;11.812;2023-07-08T12:34:50;7.50;;;4.40;;
71671;SDS011;67659;45.554;11.812;2023-07-08T12:37:17;7.80;;;4.33;;
71671;SDS011;67659;45.554;11.812;2023-07-08T12:39:43;7.90;;;4.28;;
71671;SDS011;67659;45.554;11.812;2023-07-08T12:42:18;6.70;;;4.25;;
71671;SDS011;67659;45.554;11.812;2023-07-08T12:44:46;7.65;;;3.90;;
71671;SDS011;67659;45.554;11.812;2023-07-08T12:47:13;8.00;;;4.30;;
71671;SDS011;67659;45.554;11.812;2023-07-08T12:49:39;7.37;;;4.70;;
71671;SDS011;67659;45.554;11.812;2023-07-08T12:52:05;7.53;;;4.00;;
71671;SDS011;67659;45.554;11.812;2023-07-08T12:54:31;7.18;;;4.20;;
71671;SDS011;67659;45.554;11.812;2023-07-08T12:56:59;7.70;;;4.47;;
71671;SDS011;67659;45.554;11.812;2023-07-08T12:59:25;7.63;;;4.73;;
71671;SDS011;67659;45.554;11.812;2023-07-08T13:01:51;7.72;;;4.47;;
71671;SDS011;67659;45.554;11.812;2023-07-08T13:04:18;8.35;;;4.70;;
71671;SDS011;67659;45.554;11.812;2023-07-08T13:06:45;9.80;;;4.50;;
71671;SDS011;67659;45.554;11.812;2023-07-08T13:12:10;7.00;;;4.40;;
71671;SDS011;67659;45.554;11.812;2023-07-08T13:14:43;7.05;;;4.15;;
71671;SDS011;67659;45.554;11.812;2023-07-08T13:17:11;8.25;;;4.15;;
71671;SDS011;67659;45.554;11.812;2023-07-08T13:19:41;8.25;;;4.13;;
71671;SDS011;67659;45.554;11.812;2023-07-08T13:22:10;8.57;;;4.30;;
71671;SDS011;67659;45.554;11.812;2023-07-08T13:24:44;11.70;;;4.60;;
71671;SDS011;67659;45.554;11.812;2023-07-08T13:27:21;7.03;;;4.38;;
71671;SDS011;67659;45.554;11.812;2023-07-08T13:29:52;7.93;;;4.55;;
71671;SDS011;67659;45.554;11.812;2023-07-08T13:32:19;9.68;;;4.35;;
71671;SDS011;67659;45.554;11.812;2023-07-08T13:34:48;7.43;;;4.10;;
71671;SDS011;67659;45.554;11.812;2023-07-08T13:37:16;8.85;;;4.40;;
71671;SDS011;67659;45.554;11.812;2023-07-08T13:39:46;7.25;;;4.45;;
71671;SDS011;67659;45.554;11.812;2023-07-08T13:42:12;8.40;;;4.22;;
71671;SDS011;67659;45.554;11.812;2023-07-08T13:44:46;7.15;;;4.40;;
71671;SDS011;67659;45.554;11.812;2023-07-08T13:47:20;8.13;;;4.77;;
71671;SDS011;67659;45.554;11.812;2023-07-08T13:49:59;7.55;;;4.00;;
71671;SDS011;67659;45.554;11.812;2023-07-08T13:52:32;8.48;;;4.20;;
71671;SDS011;67659;45.554;11.812;2023-07-08T13:54:59;9.37;;;4.37;;
71671;SDS011;67659;45.554;11.812;2023-07-08T13:57:29;9.15;;;4.15;;
71671;SDS011;67659;45.554;11.812;2023-07-08T13:59:59;8.07;;;4.20;;
71671;SDS011;67659;45.554;11.812;2023-07-08T14:02:26;9.00;;;3.75;;
71671;SDS011;67659;45.554;11.812;2023-07-08T14:04:55;7.60;;;4.18;;
71671;SDS011;67659;45.554;11.812;2023-07-08T14:07:24;7.60;;;4.40;;
71671;SDS011;67659;45.554;11.812;2023-07-08T14:09:51;8.90;;;4.28;;
71671;SDS011;67659;45.554;11.812;2023-07-08T14:12:19;8.18;;;4.53;;
71671;SDS011;67659;45.554;11.812;2023-07-08T14:14:46;6.93;;;4.13;;
71671;SDS011;67659;45.554;11.812;2023-07-08T14:17:12;7.13;;;4.03;;
71671;SDS011;67659;45.554;11.812;2023-07-08T14:19:43;8.10;;;4.50;;
71671;SDS011;67659;45.554;11.812;2023-07-08T14:24:40;10.23;;;4.10;;
71671;SDS011;67659;45.554;11.812;2023-07-08T14:27:08;8.20;;;4.03;;
71671;SDS011;67659;45.554;11.812;2023-07-08T14:29:39;8.60;;;4.68;;
71671;SDS011;67659;45.554;11.812;2023-07-08T14:32:10;7.45;;;4.10;;
71671;SDS011;67659;45.554;11.812;2023-07-08T14:34:39;7.13;;;3.97;;
71671;SDS011;67659;45.554;11.812;2023-07-08T14:37:13;8.25;;;4.30;;
71671;SDS011;67659;45.554;11.812;2023-07-08T14:39:40;7.40;;;3.90;;
71671;SDS011;67659;45.554;11.812;2023-07-08T14:42:08;9.18;;;4.68;;
71671;SDS011;67659;45.554;11.812;2023-07-08T14:44:37;8.18;;;4.47;;
71671;SDS011;67659;45.554;11.812;2023-07-08T14:47:07;9.30;;;4.50;;
71671;SDS011;67659;45.554;11.812;2023-07-08T14:49:39;8.00;;;4.90;;
71671;SDS011;67659;45.554;11.812;2023-07-08T14:52:05;8.97;;;4.43;;
71671;SDS011;67659;45.554;11.812;2023-07-08T14:54:31;7.35;;;4.45;;
71671;SDS011;67659;45.554;11.812;2023-07-08T14:56:57;7.63;;;4.13;;
71671;SDS011;67659;45.554;11.812;2023-07-08T14:59:25;10.05;;;4.25;;
71671;SDS011;67659;45.554;11.812;2023-07-08T15:01:54;8.37;;;4.30;;
71671;SDS011;67659;45.554;11.812;2023-07-08T15:04:23;10.52;;;4.32;;
71671;SDS011;67659;45.554;11.812;2023-07-08T15:06:49;10.48;;;4.45;;
71671;SDS011;67659;45.554;11.812;2023-07-08T15:09:17;7.78;;;3.83;;
71671;SDS011;67659;45.554;11.812;2023-07-08T15:11:43;9.75;;;4.10;;
71671;SDS011;67659;45.554;11.812;2023-07-08T15:14:19;8.57;;;4.50;;
71671;SDS011;67659;45.554;11.812;2023-07-08T15:16:48;8.48;;;4.32;;
71671;SDS011;67659;45.554;11.812;2023-07-08T15:19:15;7.70;;;4.32;;
71671;SDS011;67659;45.554;11.812;2023-07-08T15:21:41;8.20;;;4.50;;
71671;SDS011;67659;45.554;11.812;2023-07-08T15:24:08;7.22;;;4.07;;
71671;SDS011;67659;45.554;11.812;2023-07-08T15:26:41;8.80;;;4.57;;
71671;SDS011;67659;45.554;11.812;2023-07-08T15:29:14;8.18;;;4.03;;
71671;SDS011;67659;45.554;11.812;2023-07-08T15:31:45;7.55;;;4.13;;
71671;SDS011;67659;45.554;11.812;2023-07-08T15:34:12;8.20;;;4.40;;
71671;SDS011;67659;45.554;11.812;2023-07-08T15:36:40;8.05;;;4.63;;
71671;SDS011;67659;45.554;11.812;2023-07-08T15:39:06;9.67;;;4.50;;
71671;SDS011;67659;45.554;11.812;2023-07-08T15:41:34;8.27;;;4.55;;
71671;SDS011;67659;45.554;11.812;2023-07-08T15:44:04;7.88;;;4.50;;
71671;SDS011;67659;45.554;11.812;2023-07-08T15:46:33;8.65;;;4.78;;
71671;SDS011;67659;45.554;11.812;2023-07-08T15:49:08;8.07;;;4.50;;
71671;SDS011;67659;45.554;11.812;2023-07-08T15:51:39;8.60;;;4.43;;
71671;SDS011;67659;45.554;11.812;2023-07-08T15:54:05;9.55;;;4.88;;
71671;SDS011;67659;45.554;11.812;2023-07-08T15:56:31;8.55;;;4.45;;
71671;SDS011;67659;45.554;11.812;2023-07-08T15:58:58;9.25;;;4.50;;
71671;SDS011;67659;45.554;11.812;2023-07-08T16:01:24;8.83;;;4.57;;
71671;SDS011;67659;45.554;11.812;2023-07-08T16:03:51;9.20;;;4.30;;
71671;SDS011;67659;45.554;11.812;2023-07-08T16:06:22;11.02;;;4.68;;
71671;SDS011;67659;45.554;11.812;2023-07-08T16:08:50;8.65;;;4.75;;
71671;SDS011;67659;45.554;11.812;2023-07-08T16:11:20;8.15;;;4.28;;
71671;SDS011;67659;45.554;11.812;2023-07-08T16:13:55;8.70;;;4.73;;
71671;SDS011;67659;45.554;11.812;2023-07-08T16:16:22;8.23;;;4.57;;
71671;SDS011;67659;45.554;11.812;2023-07-08T16:18:49;9.57;;;4.43;;
71671;SDS011;67659;45.554;11.812;2023-07-08T16:21:15;10.15;;;4.65;;
71671;SDS011;67659;45.554;11.812;2023-07-08T16:23:41;14.13;;;5.33;;
71671;SDS011;67659;45.554;11.812;2023-07-08T16:26:08;9.93;;;4.65;;
71671;SDS011;67659;45.554;11.812;2023-07-08T16:28:41;8.63;;;4.40;;
71671;SDS011;67659;45.554;11.812;2023-07-08T16:31:10;9.60;;;5.25;;
71671;SDS011;67659;45.554;11.812;2023-07-08T16:33:41;10.13;;;4.87;;
71671;SDS011;67659;45.554;11.812;2023-07-08T16:36:14;10.38;;;4.90;;
71671;SDS011;67659;45.554;11.812;2023-07-08T16:38:42;11.13;;;4.88;;
71671;SDS011;67659;45.554;11.812;2023-07-08T16:41:12;9.70;;;4.38;;
71671;SDS011;67659;45.554;11.812;2023-07-08T16:43:42;9.68;;;4.60;;
71671;SDS011;67659;45.554;11.812;2023-07-08T16:46:12;7.63;;;4.57;;
71671;SDS011;67659;45.554;11.812;2023-07-08T16:48:39;8.48;;;4.40;;
71671;SDS011;67659;45.554;11.812;2023-07-08T16:51:26;7.22;;;4.38;;
71671;SDS011;67659;45.554;11.812;2023-07-08T16:53:57;7.60;;;4.30;;
71671;SDS011;67659;45.554;11.812;2023-07-08T16:56:36;10.10;;;4.80;;
71671;SDS011;67659;45.554;11.812;2023-07-08T16:59:02;9.27;;;5.10;;
71671;SDS011;67659;45.554;11.812;2023-07-08T17:01:27;8.98;;;4.90;;
71671;SDS011;67659;45.554;11.812;2023-07-08T17:03:54;10.13;;;4.63;;
71671;SDS011;67659;45.554;11.812;2023-07-08T17:06:22;7.73;;;4.50;;
71671;SDS011;67659;45.554;11.812;2023-07-08T17:08:48;9.73;;;4.70;;
71671;SDS011;67659;45.554;11.812;2023-07-08T17:11:16;8.18;;;4.47;;
71671;SDS011;67659;45.554;11.812;2023-07-08T17:13:42;7.72;;;4.78;;
71671;SDS011;67659;45.554;11.812;2023-07-08T17:16:11;8.50;;;4.45;;
71671;SDS011;67659;45.554;11.812;2023-07-08T17:18:44;10.73;;;5.10;;
71671;SDS011;67659;45.554;11.812;2023-07-08T17:21:19;9.35;;;4.55;;
71671;SDS011;67659;45.554;11.812;2023-07-08T17:23:45;7.28;;;4.55;;
71671;SDS011;67659;45.554;11.812;2023-07-08T17:26:11;10.23;;;5.00;;
71671;SDS011;67659;45.554;11.812;2023-07-08T17:28:37;9.50;;;4.80;;
71671;SDS011;67659;45.554;11.812;2023-07-08T17:31:04;8.67;;;5.13;;
71671;SDS011;67659;45.554;11.812;2023-07-08T17:33:30;9.55;;;4.70;;
71671;SDS011;67659;45.554;11.812;2023-07-08T17:35:57;7.93;;;4.10;;
71671;SDS011;67659;45.554;11.812;2023-07-08T17:38:43;9.60;;;4.47;;
71671;SDS011;67659;45.554;11.812;2023-07-08T17:41:11;10.82;;;4.43;;
71671;SDS011;67659;45.554;11.812;2023-07-08T17:43:39;7.90;;;4.00;;
71671;SDS011;67659;45.554;11.812;2023-07-08T17:46:09;7.75;;;4.38;;
71671;SDS011;67659;45.554;11.812;2023-07-08T17:48:36;10.07;;;4.72;;
71671;SDS011;67659;45.554;11.812;2023-07-08T17:51:04;9.27;;;5.25;;
71671;SDS011;67659;45.554;11.812;2023-07-08T17:53:30;8.60;;;5.00;;
71671;SDS011;67659;45.554;11.812;2023-07-08T17:55:57;11.60;;;4.97;;
71671;SDS011;67659;45.554;11.812;2023-07-08T17:58:26;11.68;;;5.32;;
71671;SDS011;67659;45.554;11.812;2023-07-08T18:00:56;11.80;;;5.35;;
71671;SDS011;67659;45.554;11.812;2023-07-08T18:03:22;8.63;;;5.05;;
71671;SDS011;67659;45.554;11.812;2023-07-08T18:05:48;10.60;;;5.20;;
71671;SDS011;67659;45.554;11.812;2023-07-08T18:08:14;10.75;;;4.82;;
71671;SDS011;67659;45.554;11.812;2023-07-08T18:10:40;11.27;;;5.00;;
71671;SDS011;67659;45.554;11.812;2023-07-08T18:13:07;7.93;;;5.10;;
71671;SDS011;67659;45.554;11.812;2023-07-08T18:15:43;9.63;;;4.97;;
71671;SDS011;67659;45.554;11.812;2023-07-08T18:18:08;8.83;;;5.03;;
71671;SDS011;67659;45.554;11.812;2023-07-08T18:20:36;10.27;;;5.10;;
71671;SDS011;67659;45.554;11.812;2023-07-08T18:23:12;10.70;;;5.80;;
71671;SDS011;67659;45.554;11.812;2023-07-08T18:25:43;8.07;;;4.60;;
71671;SDS011;67659;45.554;11.812;2023-07-08T18:28:09;7.70;;;4.80;;
71671;SDS011;67659;45.554;11.812;2023-07-08T18:30:42;7.37;;;4.67;;
71671;SDS011;67659;45.554;11.812;2023-07-08T18:33:31;9.00;;;4.70;;
71671;SDS011;67659;45.554;11.812;2023-07-08T18:35:59;9.35;;;4.90;;
71671;SDS011;67659;45.554;11.812;2023-07-08T18:38:25;7.65;;;4.80;;
71671;SDS011;67659;45.554;11.812;2023-07-08T18:40:50;8.43;;;5.00;;
71671;SDS011;67659;45.554;11.812;2023-07-08T18:43:20;7.47;;;4.60;;
71671;SDS011;67659;45.554;11.812;2023-07-08T18:45:48;7.78;;;4.70;;
71671;SDS011;67659;45.554;11.812;2023-07-08T18:48:16;10.02;;;6.00;;
71671;SDS011;67659;45.554;11.812;2023-07-08T18:50:45;11.17;;;5.03;;
71671;SDS011;67659;45.554;11.812;2023-07-08T18:53:18;8.63;;;4.72;;
71671;SDS011;67659;45.554;11.812;2023-07-08T18:55:45;7.57;;;4.20;;
71671;SDS011;67659;45.554;11.812;2023-07-08T18:58:13;8.70;;;4.72;;
71671;SDS011;67659;45.554;11.812;2023-07-08T19:00:40;7.53;;;3.95;;
71671;SDS011;67659;45.554;11.812;2023-07-08T19:03:24;8.40;;;4.10;;
71671;SDS011;67659;45.554;11.812;2023-07-08T19:05:52;9.57;;;4.30;;
71671;SDS011;67659;45.554;11.812;2023-07-08T19:08:18;7.38;;;4.13;;
71671;SDS011;67659;45.554;11.812;2023-07-08T19:10:47;7.85;;;4.07;;
71671;SDS011;67659;45.554;11.812;2023-07-08T19:13:20;7.80;;;4.13;;
71671;SDS011;67659;45.554;11.812;2023-07-08T19:15:49;7.37;;;3.83;;
71671;SDS011;67659;45.554;11.812;2023-07-08T19:18:16;8.68;;;4.18;;
71671;SDS011;67659;45.554;11.812;2023-07-08T19:20:44;8.15;;;4.47;;